Time;durP1;ratioP1;P1;durP2;ratioP2;P2;SDS_P1;SDS_P2;PMS_P1;PMS_P2;Temp;Humidity;BMP_temperature;BMP_pressure;BME280_temperature;BME280_humidity;BME280_pressure;Samples;Min_cycle;Max_cycle;Signal;HPM_P1;HPM_P2
2021/03/25 00:00:30;;;;;;;15.40;8.73;;;5.80;59.90;;;;;;5058523;28;20027;-91
2021/03/25 00:02:59;;;;;;;16.77;8.57;;;5.80;59.90;;;;;;5058409;28;20024;-90
2021/03/25 00:05:28;;;;;;;12.63;7.78;;;5.80;60.00;;;;;;5073870;28;20021;-90
2021/03/25 00:07:53;;;;;;;15.40;8.38;;;5.80;60.00;;;;;;5058785;28;20092;-91
2021/03/25 00:10:31;;;;;;;18.52;8.10;;;5.70;60.00;;;;;;5058336;28;20149;-90
2021/03/25 00:12:59;;;;;;;16.08;8.05;;;5.70;60.10;;;;;;5074995;28;20028;-90
2021/03/25 00:15:26;;;;;;;13.73;7.50;;;5.60;60.10;;;;;;5075040;28;20028;-91
2021/03/25 00:17:51;;;;;;;15.95;8.07;;;5.60;60.10;;;;;;5060016;28;20474;-91
2021/03/25 00:20:17;;;;;;;15.30;8.35;;;5.60;60.10;;;;;;5058438;28;20119;-91
2021/03/25 00:22:44;;;;;;;15.43;8.73;;;5.60;60.30;;;;;;5071136;28;20031;-91
2021/03/25 00:25:14;;;;;;;17.45;8.55;;;5.60;60.30;;;;;;5076553;28;20066;-90
2021/03/25 00:27:40;;;;;;;14.73;8.25;;;5.60;60.30;;;;;;5057930;28;20047;-91
2021/03/25 00:30:08;;;;;;;16.70;7.82;;;5.50;60.20;;;;;;5058524;28;20024;-90
2021/03/25 00:32:34;;;;;;;14.52;8.20;;;5.50;60.40;;;;;;5057770;28;20046;-91
2021/03/25 00:35:00;;;;;;;13.88;7.70;;;5.40;60.50;;;;;;5067087;28;20028;-91
2021/03/25 00:37:25;;;;;;;15.02;8.13;;;5.40;60.70;;;;;;5062742;28;20367;-90
2021/03/25 00:39:51;;;;;;;15.57;8.43;;;5.40;60.60;;;;;;5058409;28;20085;-90
2021/03/25 00:42:17;;;;;;;14.38;8.05;;;5.40;60.70;;;;;;5057377;28;20032;-90
2021/03/25 00:44:43;;;;;;;16.23;7.90;;;5.40;60.80;;;;;;5058047;28;20058;-90
2021/03/25 00:47:10;;;;;;;16.80;7.70;;;5.40;60.70;;;;;;5073689;28;20029;-90
2021/03/25 00:49:36;;;;;;;13.15;7.82;;;5.30;60.70;;;;;;5076075;28;20119;-90
2021/03/25 00:52:02;;;;;;;15.23;7.70;;;5.30;60.80;;;;;;5066353;28;20110;-91
2021/03/25 00:54:28;;;;;;;15.30;8.30;;;5.20;60.90;;;;;;5074112;28;20020;-91
2021/03/25 00:56:54;;;;;;;14.38;7.95;;;5.10;60.90;;;;;;5071166;28;20035;-91
2021/03/25 00:59:20;;;;;;;16.00;8.57;;;5.10;61.10;;;;;;5077272;28;20025;-89
2021/03/25 01:01:45;;;;;;;14.20;8.00;;;5.00;61.20;;;;;;5057695;28;20110;-92
2021/03/25 01:04:11;;;;;;;14.88;7.72;;;5.00;61.30;;;;;;5062818;28;20111;-92
2021/03/25 01:06:36;;;;;;;18.52;8.20;;;4.90;61.40;;;;;;5063286;28;20059;-92
2021/03/25 01:09:15;;;;;;;17.08;7.93;;;4.90;61.50;;;;;;5074982;28;20037;-91
2021/03/25 01:11:40;;;;;;;15.85;7.78;;;5.00;61.50;;;;;;5074373;28;20052;-89
2021/03/25 01:14:09;;;;;;;16.23;8.02;;;5.00;61.30;;;;;;5056423;28;20029;-89
2021/03/25 01:16:38;;;;;;;14.27;7.95;;;4.90;61.30;;;;;;5056930;28;20167;-89
2021/03/25 01:19:08;;;;;;;15.13;7.82;;;4.90;61.50;;;;;;5057052;28;20593;-89
2021/03/25 01:21:33;;;;;;;18.20;7.93;;;4.80;61.50;;;;;;5074238;28;20025;-89
2021/03/25 01:23:59;;;;;;;15.18;7.55;;;4.80;61.60;;;;;;5072033;28;20040;-90
2021/03/25 01:26:25;;;;;;;16.45;8.57;;;4.70;61.70;;;;;;5065959;28;20036;-89
2021/03/25 01:28:50;;;;;;;15.88;7.75;;;4.60;61.90;;;;;;5056939;28;20371;-89
2021/03/25 01:31:16;;;;;;;17.23;8.52;;;4.50;62.00;;;;;;5064874;28;20123;-89
2021/03/25 01:33:41;;;;;;;15.23;7.70;;;4.40;62.10;;;;;;5063409;28;20371;-90
2021/03/25 01:36:07;;;;;;;17.27;7.82;;;4.40;62.30;;;;;;5068323;28;20066;-90
2021/03/25 01:38:33;;;;;;;13.00;7.28;;;4.30;62.50;;;;;;5077709;28;20474;-90
2021/03/25 01:41:00;;;;;;;17.30;8.10;;;4.30;62.50;;;;;;5071223;28;20098;-90
2021/03/25 01:43:41;;;;;;;12.02;7.00;;;4.30;62.50;;;;;;5056544;28;20028;-90
2021/03/25 01:46:30;;;;;;;13.25;7.50;;;4.20;62.50;;;;;;5058445;28;20027;-90
2021/03/25 01:49:02;;;;;;;15.05;8.05;;;4.20;62.80;;;;;;5073262;28;20029;-90
2021/03/25 01:52:05;;;;;;;11.85;7.03;;;4.20;62.80;;;;;;5068356;28;20505;-90
2021/03/25 01:54:31;;;;;;;;;;;4.20;62.80;;;;;;5057001;28;20090;-90
2021/03/25 01:57:24;;;;;;;14.57;7.50;;;4.20;62.10;;;;;;5072942;28;19908;-90
2021/03/25 02:00:18;;;;;;;14.93;7.72;;;4.10;62.40;;;;;;5046863;28;20025;-90
2021/03/25 02:03:12;;;;;;;19.13;7.93;;;4.00;62.60;;;;;;5070245;28;20052;-90
2021/03/25 02:05:40;;;;;;;16.73;8.13;;;3.90;62.80;;;;;;5073577;28;20462;-90
2021/03/25 02:08:10;;;;;;;13.20;7.78;;;3.90;62.80;;;;;;5056359;28;20490;-90
2021/03/25 02:11:05;;;;;;;13.35;7.57;;;3.90;63.10;;;;;;5061700;28;20060;-90
2021/03/25 02:13:48;;;;;;;10.80;7.15;;;3.90;63.20;;;;;;5055743;28;20051;-90
2021/03/25 02:16:28;;;;;;;12.82;7.32;;;3.90;63.20;;;;;;5057914;28;20128;-90
2021/03/25 02:19:07;;;;;;;13.07;7.47;;;3.90;63.30;;;;;;5056317;28;20029;-89
2021/03/25 02:21:49;;;;;;;14.75;7.05;;;3.90;63.20;;;;;;5056728;28;20028;-90
2021/03/25 02:24:25;;;;;;;14.23;7.00;;;3.90;63.20;;;;;;5055277;28;20029;-90
2021/03/25 02:27:17;;;;;;;13.60;7.07;;;4.00;63.30;;;;;;5055122;28;20043;-90
2021/03/25 02:30:06;;;;;;;14.77;7.22;;;4.00;63.10;;;;;;5058528;28;20068;-90
2021/03/25 02:32:36;;;;;;;14.05;7.22;;;4.00;63.00;;;;;;5045693;28;20059;-90
2021/03/25 02:35:18;;;;;;;17.05;7.72;;;3.90;62.90;;;;;;5063894;28;20080;-90
2021/03/25 02:37:47;;;;;;;15.00;7.05;;;3.90;63.20;;;;;;5069896;28;20056;-90
2021/03/25 02:40:23;;;;;;;13.45;7.60;;;3.90;63.20;;;;;;5059393;28;20029;-90
2021/03/25 02:42:55;;;;;;;14.30;7.57;;;3.80;62.90;;;;;;5056067;28;20145;-90
2021/03/25 02:45:28;;;;;;;13.13;7.55;;;3.70;62.90;;;;;;5055797;28;20124;-90
2021/03/25 02:48:05;;;;;;;14.85;7.97;;;3.50;63.30;;;;;;5056079;28;20052;-90
2021/03/25 02:50:43;;;;;;;14.10;8.05;;;3.50;63.70;;;;;;5070673;28;20474;-90
2021/03/25 02:53:24;;;;;;;14.43;7.65;;;3.40;63.80;;;;;;5056667;28;20028;-90
2021/03/25 02:55:54;;;;;;;14.50;8.05;;;3.40;63.90;;;;;;5066330;28;20024;-90
2021/03/25 02:58:23;;;;;;;13.07;7.35;;;3.40;63.90;;;;;;5073296;28;20025;-90
2021/03/25 03:01:13;;;;;;;19.02;7.72;;;3.40;64.00;;;;;;5059415;28;20386;-90
2021/03/25 03:04:05;;;;;;;15.45;7.35;;;3.30;64.10;;;;;;5071263;28;20053;-90
2021/03/25 03:06:39;;;;;;;14.88;8.02;;;3.40;64.30;;;;;;5024484;28;20037;-90
2021/03/25 03:09:09;;;;;;;13.40;7.28;;;3.50;64.20;;;;;;5055290;28;20025;-91
2021/03/25 03:11:40;;;;;;;14.85;7.68;;;3.60;64.10;;;;;;5055532;28;20547;-90
2021/03/25 03:14:29;;;;;;;14.38;7.82;;;3.60;64.00;;;;;;5055359;28;20032;-90
2021/03/25 03:17:02;;;;;;;14.50;7.80;;;3.70;64.10;;;;;;5051902;28;20035;-90
2021/03/25 03:19:47;;;;;;;15.40;7.78;;;3.70;63.80;;;;;;5061372;28;20028;-91
2021/03/25 03:22:13;;;;;;;12.57;7.63;;;3.60;63.60;;;;;;5077533;28;20133;-90
2021/03/25 03:24:39;;;;;;;13.60;7.60;;;3.60;63.80;;;;;;5069122;28;20024;-90
2021/03/25 03:27:13;;;;;;;13.93;7.32;;;3.50;63.90;;;;;;5059683;28;20032;-89
2021/03/25 03:29:42;;;;;;;16.08;7.80;;;3.50;64.10;;;;;;5064664;28;20115;-90
2021/03/25 03:32:38;;;;;;;13.52;7.57;;;3.50;64.10;;;;;;5078102;28;20024;-90
2021/03/25 03:35:17;;;;;;;14.65;7.43;;;3.40;64.00;;;;;;5070298;22;20040;-85
2021/03/25 03:37:49;;;;;;;15.68;7.43;;;3.30;64.20;;;;;;5044343;28;20418;-85
2021/03/25 03:40:24;;;;;;;16.45;7.18;;;3.20;64.30;;;;;;5065253;28;20385;-85
2021/03/25 03:42:52;;;;;;;12.23;6.82;;;3.20;64.50;;;;;;5080560;28;20485;-85
2021/03/25 03:45:22;;;;;;;12.75;7.22;;;3.10;64.30;;;;;;5065799;28;20119;-85
2021/03/25 03:47:49;;;;;;;15.48;7.15;;;3.10;64.50;;;;;;5059605;28;20031;-85
2021/03/25 03:50:30;;;;;;;13.55;7.72;;;3.00;64.50;;;;;;5043452;28;20033;-84
2021/03/25 03:52:57;;;;;;;14.63;7.53;;;3.00;64.70;;;;;;5046497;28;20028;-84
2021/03/25 03:55:24;;;;;;;12.23;7.18;;;3.00;64.60;;;;;;5051331;28;20056;-85
2021/03/25 03:57:58;;;;;;;14.00;7.32;;;3.00;64.60;;;;;;5054577;28;20029;-85
2021/03/25 04:00:47;;;;;;;14.73;7.63;;;3.10;64.80;;;;;;5055487;28;20025;-85
2021/03/25 04:03:33;;;;;;;18.73;8.73;;;3.00;65.20;;;;;;5055770;28;20028;-84
2021/03/25 04:06:03;;;;;;;16.98;8.60;;;3.00;64.50;;;;;;5069175;28;20036;-85
2021/03/25 04:08:47;;;;;;;16.02;8.30;;;3.10;64.70;;;;;;5050963;28;20028;-84
2021/03/25 04:11:19;;;;;;;20.00;9.38;;;3.00;64.60;;;;;;5056653;28;20028;-85
2021/03/25 04:14:06;;;;;;;22.17;8.07;;;3.00;64.70;;;;;;5056890;28;20123;-84
2021/03/25 04:16:34;;;;;;;18.55;7.70;;;3.00;64.70;;;;;;5057307;28;20024;-83
2021/03/25 04:19:11;;;;;;;15.27;7.32;;;2.90;64.60;;;;;;5057272;28;20032;-84
2021/03/25 04:21:52;;;;;;;13.80;7.32;;;2.90;64.90;;;;;;5057142;28;20028;-84
2021/03/25 04:24:23;;;;;;;18.48;7.18;;;2.90;65.00;;;;;;5073454;28;20106;-84
2021/03/25 04:27:14;;;;;;;15.27;7.20;;;2.90;65.00;;;;;;5049875;28;20021;-84
2021/03/25 04:29:52;;;;;;;12.18;6.75;;;2.90;64.80;;;;;;5057981;28;20024;-84
2021/03/25 04:32:18;;;;;;;15.95;8.00;;;2.90;64.70;;;;;;5050809;28;20027;-84
2021/03/25 04:34:47;;;;;;;11.95;6.75;;;2.90;64.80;;;;;;5055786;28;20371;-85
2021/03/25 04:37:12;;;;;;;14.23;6.57;;;3.00;64.90;;;;;;5083112;28;20035;-84
2021/03/25 04:39:39;;;;;;;16.10;7.70;;;3.00;64.90;;;;;;5061940;28;20089;-85
2021/03/25 04:42:06;;;;;;;17.33;7.65;;;2.90;64.80;;;;;;5079544;28;20031;-86
2021/03/25 04:44:49;;;;;;;16.88;7.75;;;2.90;65.40;;;;;;5061555;28;20066;-85
2021/03/25 04:47:24;;;;;;;11.23;7.15;;;2.80;65.10;;;;;;5047021;28;20342;-84
2021/03/25 04:50:31;;;;;;;12.15;6.75;;;2.80;65.20;;;;;;5042185;28;20541;-84
2021/03/25 04:53:06;;;;;;;12.63;7.10;;;2.80;65.10;;;;;;4981553;28;20030;-85
2021/03/25 04:55:35;;;;;;;13.35;7.20;;;2.80;65.30;;;;;;5070662;28;20032;-85
2021/03/25 04:58:09;;;;;;;13.68;7.10;;;2.70;65.10;;;;;;5061421;28;20078;-85
2021/03/25 05:00:38;;;;;;;13.05;6.70;;;2.80;65.30;;;;;;5079311;28;20024;-85
2021/03/25 05:03:08;;;;;;;12.15;6.30;;;2.70;65.20;;;;;;5061353;28;20477;-85
2021/03/25 05:05:34;;;;;;;16.67;7.10;;;2.70;65.20;;;;;;5068621;28;20032;-84
2021/03/25 05:08:06;;;;;;;11.90;6.93;;;2.80;65.30;;;;;;5059207;28;20468;-85
2021/03/25 05:10:34;;;;;;;13.88;7.22;;;2.80;65.30;;;;;;5061663;28;20113;-84
2021/03/25 05:13:02;;;;;;;15.43;7.10;;;2.80;65.10;;;;;;5061337;28;20025;-85
2021/03/25 05:15:31;;;;;;;11.85;6.93;;;2.60;65.10;;;;;;5061807;28;20096;-84
2021/03/25 05:18:12;;;;;;;12.52;6.85;;;2.60;65.30;;;;;;5061359;28;20052;-84
2021/03/25 05:20:46;;;;;;;12.80;7.15;;;2.60;66.00;;;;;;5061844;28;20080;-84
2021/03/25 05:23:37;;;;;;;13.95;6.90;;;2.70;65.70;;;;;;5061697;28;20078;-85
2021/03/25 05:26:11;;;;;;;11.60;6.63;;;2.70;65.60;;;;;;5061762;28;20077;-84
2021/03/25 05:28:43;;;;;;;11.85;6.93;;;2.80;65.40;;;;;;5060810;28;20020;-84
2021/03/25 05:31:13;;;;;;;13.80;6.93;;;2.80;65.30;;;;;;5061247;28;20119;-84
2021/03/25 05:33:39;;;;;;;10.93;6.82;;;2.80;65.10;;;;;;5060640;28;20028;-84
2021/03/25 05:36:10;;;;;;;14.52;6.75;;;2.80;65.20;;;;;;5082965;28;20467;-85
2021/03/25 05:38:37;;;;;;;13.98;6.97;;;2.80;65.40;;;;;;5060924;28;20035;-84
2021/03/25 05:41:05;;;;;;;13.60;6.75;;;2.80;65.40;;;;;;5061495;28;20032;-84
2021/03/25 05:43:43;;;;;;;12.38;7.20;;;2.80;65.40;;;;;;5078585;28;20044;-84
2021/03/25 05:46:29;;;;;;;13.82;7.05;;;2.80;65.50;;;;;;5059602;28;20164;-85
2021/03/25 05:49:13;;;;;;;11.50;6.78;;;2.70;65.50;;;;;;5079444;28;20035;-85
2021/03/25 05:52:05;;;;;;;14.82;7.38;;;2.70;65.50;;;;;;5059329;28;20021;-85
2021/03/25 05:54:53;;;;;;;12.70;7.10;;;2.70;65.70;;;;;;5061112;28;20115;-85
2021/03/25 05:57:37;;;;;;;14.55;6.90;;;2.70;65.60;;;;;;5060707;28;20398;-85
2021/03/25 06:00:12;;;;;;;12.00;7.15;;;2.80;65.60;;;;;;5078649;28;20032;-85
2021/03/25 06:02:50;;;;;;;11.93;6.72;;;2.80;65.60;;;;;;5073208;28;20029;-85
2021/03/25 06:05:16;;;;;;;12.93;7.22;;;2.80;65.60;;;;;;5085769;28;20316;-85
2021/03/25 06:07:48;;;;;;;15.20;7.30;;;2.80;65.60;;;;;;5075857;28;20095;-84
2021/03/25 06:10:37;;;;;;;13.60;7.27;;;2.80;65.70;;;;;;5078820;28;20111;-85
2021/03/25 06:13:21;;;;;;;13.57;7.53;;;2.80;65.70;;;;;;5061041;28;20501;-85
2021/03/25 06:16:08;;;;;;;15.30;7.65;;;2.90;65.80;;;;;;5060303;28;20035;-84
2021/03/25 06:18:52;;;;;;;16.60;7.30;;;2.90;65.70;;;;;;5060313;28;20025;-85
2021/03/25 06:21:24;;;;;;;13.00;7.18;;;2.90;65.70;;;;;;5060058;28;20024;-85
2021/03/25 06:23:59;;;;;;;15.02;7.78;;;3.00;65.80;;;;;;5059676;28;20091;-85
2021/03/25 06:27:02;;;;;;;15.00;8.02;;;3.10;65.80;;;;;;5052637;28;20423;-84
2021/03/25 06:29:32;;;;;;;18.33;7.72;;;3.20;65.60;;;;;;5072610;28;20032;-84
2021/03/25 06:32:16;;;;;;;15.80;8.30;;;3.30;65.60;;;;;;5074732;28;20025;-85
2021/03/25 06:34:56;;;;;;;14.73;7.30;;;3.50;65.60;;;;;;5057307;28;20029;-84
2021/03/25 06:38:13;;;;;;;15.43;7.55;;;3.70;65.50;;;;;;5064132;28;20024;-84
2021/03/25 06:40:53;;;;;;;11.27;6.70;;;4.00;65.00;;;;;;5055438;28;20037;-85
2021/03/25 06:43:37;;;;;;;13.45;7.55;;;4.10;64.80;;;;;;5060177;28;20483;-84
2021/03/25 06:46:11;;;;;;;14.15;7.18;;;4.30;64.80;;;;;;5059260;28;20505;-85
2021/03/25 06:48:51;;;;;;;15.40;7.30;;;4.40;64.60;;;;;;5060633;28;20028;-85
2021/03/25 06:51:30;;;;;;;13.43;6.47;;;4.60;64.60;;;;;;5077993;28;20035;-85
2021/03/25 06:54:25;;;;;;;16.10;7.70;;;4.70;64.30;;;;;;5059024;28;20078;-85
2021/03/25 06:56:53;;;;;;;11.90;7.10;;;5.00;64.30;;;;;;5059203;28;20115;-85
2021/03/25 06:59:29;;;;;;;15.38;7.50;;;5.10;64.20;;;;;;5076744;28;20028;-86
2021/03/25 07:02:10;;;;;;;12.48;7.63;;;5.40;64.20;;;;;;5049915;28;20027;-85
2021/03/25 07:04:48;;;;;;;11.30;6.82;;;5.60;63.90;;;;;;5060766;28;20016;-85
2021/03/25 07:07:23;;;;;;;15.02;7.82;;;6.00;63.80;;;;;;5063582;28;20058;-84
2021/03/25 07:09:49;;;;;;;12.68;7.30;;;6.30;63.30;;;;;;5077664;28;20471;-85
2021/03/25 07:12:21;;;;;;;13.35;7.35;;;6.60;63.10;;;;;;5059775;28;20048;-84
2021/03/25 07:14:49;;;;;;;14.68;7.57;;;6.80;62.90;;;;;;5058216;28;20111;-85
2021/03/25 07:17:17;;;;;;;13.63;7.45;;;7.10;62.50;;;;;;5059914;28;20028;-85
2021/03/25 07:19:47;;;;;;;16.13;7.80;;;7.40;62.20;;;;;;5060199;28;20030;-85
2021/03/25 07:22:22;;;;;;;14.90;7.50;;;7.60;62.00;;;;;;5059454;28;20028;-85
2021/03/25 07:24:49;;;;;;;12.07;7.40;;;7.80;61.80;;;;;;5059674;28;20384;-85
2021/03/25 07:27:23;;;;;;;14.70;8.32;;;7.90;61.60;;;;;;5057128;28;20043;-85
2021/03/25 07:29:59;;;;;;;15.57;8.13;;;8.20;61.60;;;;;;5059136;28;20045;-84
2021/03/25 07:32:37;;;;;;;13.65;7.40;;;8.30;61.30;;;;;;5072486;28;20032;-84
2021/03/25 07:35:25;;;;;;;15.65;8.18;;;8.50;61.30;;;;;;5059300;28;20091;-85
2021/03/25 07:37:52;;;;;;;13.82;7.85;;;8.70;61.20;;;;;;5068526;28;20089;-84
2021/03/25 07:40:38;;;;;;;13.82;7.55;;;8.90;61.00;;;;;;5057983;28;20458;-84
2021/03/25 07:43:16;;;;;;;12.65;6.93;;;9.20;60.80;;;;;;5063462;28;20027;-83
2021/03/25 07:45:42;;;;;;;12.40;7.40;;;9.40;60.80;;;;;;5053912;28;20039;-83
2021/03/25 07:48:18;;;;;;;15.82;7.38;;;9.60;60.50;;;;;;5049608;28;20482;-83
2021/03/25 07:50:45;;;;;;;11.98;6.97;;;9.90;60.40;;;;;;5056143;28;20496;-85
2021/03/25 07:53:19;;;;;;;12.48;7.22;;;10.10;60.30;;;;;;5077561;28;20129;-86
2021/03/25 07:55:45;;;;;;;13.77;7.45;;;10.30;60.30;;;;;;5059993;28;20031;-86
2021/03/25 07:58:48;;;;;;;16.70;7.55;;;10.50;59.80;;;;;;5057913;28;20029;-85
2021/03/25 08:01:15;;;;;;;52.45;26.52;;;10.80;59.50;;;;;;5047618;28;20028;-85
2021/03/25 08:03:59;;;;;;;26.50;9.93;;;11.10;59.50;;;;;;5059921;28;20033;-86
2021/03/25 08:06:38;;;;;;;20.88;7.80;;;11.50;59.30;;;;;;5052260;28;20078;-86
2021/03/25 08:09:14;;;;;;;17.40;7.38;;;11.90;58.70;;;;;;5062891;28;20081;-84
2021/03/25 08:11:57;;;;;;;19.63;7.85;;;12.40;57.80;;;;;;5063119;28;20032;-85
2021/03/25 08:14:36;;;;;;;14.07;7.60;;;12.70;57.20;;;;;;5062812;28;20482;-86
2021/03/25 08:17:10;;;;;;;11.75;7.47;;;13.20;56.80;;;;;;5064087;28;20024;-85
2021/03/25 08:19:48;;;;;;;16.65;7.85;;;13.60;56.00;;;;;;5081243;28;20074;-85
2021/03/25 08:22:27;;;;;;;10.45;5.45;;;14.10;55.40;;;;;;5061955;28;20031;-83
2021/03/25 08:25:23;;;;;;;10.15;6.28;;;14.70;54.50;;;;;;5062449;28;20024;-84
2021/03/25 08:28:02;;;;;;;9.00;5.43;;;15.20;53.70;;;;;;5063096;28;20027;-84
2021/03/25 08:30:45;;;;;;;11.35;5.72;;;15.50;53.30;;;;;;5056218;28;20077;-85
2021/03/25 08:33:28;;;;;;;16.13;6.53;;;15.80;52.60;;;;;;5062299;28;20081;-84
2021/03/25 08:36:16;;;;;;;10.43;5.93;;;16.00;52.00;;;;;;5075722;28;20028;-85
2021/03/25 08:39:28;;;;;;;11.25;6.57;;;16.40;51.40;;;;;;5053081;28;20040;-85
2021/03/25 08:42:03;;;;;;;10.48;6.15;;;16.60;49.90;;;;;;5060725;28;20029;-83
2021/03/25 08:44:36;;;;;;;12.55;6.28;;;16.60;50.30;;;;;;5057159;28;20407;-85
2021/03/25 08:47:04;;;;;;;14.48;6.35;;;16.70;50.50;;;;;;5082554;28;20020;-86
2021/03/25 08:49:51;;;;;;;11.32;6.35;;;16.70;49.90;;;;;;5081392;28;20032;-86
2021/03/25 08:52:19;;;;;;;8.80;5.63;;;16.70;49.80;;;;;;5058793;28;20561;-86
2021/03/25 08:54:51;;;;;;;12.63;5.40;;;16.80;49.70;;;;;;5070182;28;20032;-84
2021/03/25 08:57:22;;;;;;;9.25;5.25;;;16.90;49.20;;;;;;5063627;28;20162;-86
2021/03/25 09:00:12;;;;;;;10.02;5.30;;;17.10;49.50;;;;;;5062761;28;20044;-85
2021/03/25 09:02:45;;;;;;;9.77;5.53;;;17.30;49.10;;;;;;5066728;28;20028;-85
2021/03/25 09:05:18;;;;;;;10.20;5.47;;;17.50;49.10;;;;;;5063912;28;20024;-84
2021/03/25 09:07:46;;;;;;;9.70;5.68;;;17.90;48.60;;;;;;5064505;28;20032;-85
2021/03/25 09:10:37;;;;;;;8.30;5.50;;;18.20;47.80;;;;;;5063346;28;20031;-85
2021/03/25 09:13:03;;;;;;;9.93;5.68;;;18.20;46.70;;;;;;5080456;28;20016;-85
2021/03/25 09:15:28;;;;;;;7.82;4.80;;;18.20;46.60;;;;;;5082292;28;20055;-85
2021/03/25 09:18:06;;;;;;;8.23;5.03;;;18.10;46.60;;;;;;5062827;28;20013;-86
2021/03/25 09:20:38;;;;;;;7.88;4.97;;;18.10;46.60;;;;;;5062775;28;20070;-85
2021/03/25 09:23:29;;;;;;;7.88;5.20;;;18.30;46.50;;;;;;5061505;28;20024;-85
2021/03/25 09:25:56;;;;;;;10.43;4.57;;;18.50;45.90;;;;;;5059081;28;20029;-85
2021/03/25 09:28:22;;;;;;;8.30;4.88;;;18.70;45.90;;;;;;5082856;28;20028;-85
2021/03/25 09:31:11;;;;;;;7.20;4.75;;;19.00;45.70;;;;;;5061084;28;20025;-85
2021/03/25 09:33:37;;;;;;;8.00;4.15;;;19.30;45.40;;;;;;5058617;28;20496;-85
2021/03/25 09:36:32;;;;;;;7.82;4.55;;;19.50;44.60;;;;;;5071708;28;20028;-86
2021/03/25 09:38:57;;;;;;;8.60;4.35;;;19.50;43.60;;;;;;5036035;28;20069;-85
2021/03/25 09:41:26;;;;;;;8.82;4.03;;;19.50;44.20;;;;;;5061590;28;20390;-86
2021/03/25 09:44:20;;;;;;;7.25;3.80;;;19.50;44.70;;;;;;5080269;28;20498;-86
2021/03/25 09:46:47;;;;;;;6.53;4.05;;;19.50;44.40;;;;;;5040073;28;20037;-86
2021/03/25 09:49:23;;;;;;;6.80;3.67;;;19.50;44.20;;;;;;5058945;28;20020;-86
2021/03/25 09:52:07;;;;;;;8.93;4.68;;;19.30;43.60;;;;;;5063172;28;20052;-86
2021/03/25 09:54:55;;;;;;;7.25;4.22;;;19.20;43.90;;;;;;5042642;28;20037;-86
2021/03/25 09:57:28;;;;;;;5.97;4.10;;;19.20;44.70;;;;;;5135221;23;20092;-90
2021/03/25 10:00:00;;;;;;;6.40;4.15;;;19.10;44.10;;;;;;5076430;28;20379;-91
2021/03/25 10:02:37;;;;;;;7.93;4.28;;;19.10;44.40;;;;;;5073170;28;20351;-91
2021/03/25 10:05:24;;;;;;;7.40;4.10;;;19.00;44.20;;;;;;5068756;28;20020;-92
2021/03/25 10:07:52;;;;;;;10.05;4.35;;;18.90;44.40;;;;;;5041952;28;20059;-90
2021/03/25 10:10:46;;;;;;;8.07;4.72;;;18.80;44.10;;;;;;5050068;28;20108;-90
2021/03/25 10:13:16;;;;;;;9.23;4.32;;;18.70;44.30;;;;;;5038702;28;20039;-91
2021/03/25 10:15:47;;;;;;;8.05;4.43;;;18.70;43.60;;;;;;5039061;28;20029;-90
2021/03/25 10:18:33;;;;;;;10.40;4.90;;;18.60;43.40;;;;;;5048288;28;20426;-90
2021/03/25 10:21:08;;;;;;;9.23;4.68;;;18.50;42.80;;;;;;5041596;28;20074;-92
2021/03/25 10:23:42;;;;;;;9.48;4.80;;;18.40;43.50;;;;;;5054338;28;20394;-90
2021/03/25 10:26:11;;;;;;;9.02;4.57;;;18.40;43.80;;;;;;5053932;28;20055;-91
2021/03/25 10:28:44;;;;;;;9.90;4.47;;;18.60;44.60;;;;;;5049395;28;20477;-91
2021/03/25 10:31:22;;;;;;;7.38;4.43;;;18.80;44.00;;;;;;5051697;28;20020;-91
2021/03/25 10:33:52;;;;;;;8.05;4.50;;;19.00;42.70;;;;;;5073604;28;20025;-91
2021/03/25 10:36:38;;;;;;;7.70;4.15;;;19.00;42.50;;;;;;5050326;28;20390;-91
2021/03/25 10:39:07;;;;;;;11.27;5.00;;;18.90;42.80;;;;;;5037466;28;20135;-92
2021/03/25 10:41:37;;;;;;;16.60;5.03;;;19.00;43.60;;;;;;5045986;28;20431;-91
2021/03/25 10:44:27;;;;;;;12.05;5.40;;;19.20;44.00;;;;;;5053039;28;20532;-90
2021/03/25 10:46:55;;;;;;;15.70;5.40;;;19.40;44.30;;;;;;5053745;28;20127;-90
2021/03/25 10:49:27;;;;;;;11.85;6.18;;;19.50;44.20;;;;;;5050399;28;20040;-90
2021/03/25 10:51:54;;;;;;;9.43;5.93;;;19.60;44.50;;;;;;5066508;28;20028;-91
2021/03/25 10:54:27;;;;;;;13.73;5.60;;;19.70;44.10;;;;;;5042191;28;20033;-91
2021/03/25 10:57:16;;;;;;;9.43;5.80;;;19.80;43.60;;;;;;5036281;28;20035;-90
2021/03/25 11:00:00;;;;;;;665.83;50.53;;;20.00;43.40;;;;;;5035658;28;20120;-90
2021/03/25 11:02:28;;;;;;;14.35;6.00;;;20.10;43.70;;;;;;5049239;28;20056;-90
2021/03/25 11:05:25;;;;;;;11.82;4.43;;;20.40;43.40;;;;;;5037002;28;20022;-90
2021/03/25 11:07:52;;;;;;;6.60;3.75;;;20.40;42.00;;;;;;5044759;28;20037;-89
2021/03/25 11:10:26;;;;;;;14.50;7.28;;;20.30;40.40;;;;;;5073418;28;20020;-90
2021/03/25 11:13:19;;;;;;;11.82;4.63;;;20.10;39.30;;;;;;5053222;28;20047;-90
2021/03/25 11:15:54;;;;;;;7.35;3.70;;;19.80;38.20;;;;;;5031547;28;20037;-90
2021/03/25 11:18:29;;;;;;;7.63;4.10;;;19.60;39.20;;;;;;5054470;28;20021;-92
2021/03/25 11:20:56;;;;;;;5.57;3.60;;;19.60;39.40;;;;;;5039567;28;20021;-91
2021/03/25 11:23:25;;;;;;;7.63;3.90;;;19.70;39.10;;;;;;5070934;28;20021;-90
2021/03/25 11:26:01;;;;;;;7.47;3.97;;;19.60;37.90;;;;;;5046291;28;20029;-90
2021/03/25 11:28:33;;;;;;;7.07;3.50;;;19.60;38.50;;;;;;5071754;28;20024;-90
2021/03/25 11:31:22;;;;;;;8.32;3.58;;;19.60;38.30;;;;;;5073564;28;20021;-90
2021/03/25 11:33:49;;;;;;;7.70;3.47;;;19.60;39.60;;;;;;5055416;28;20051;-90
2021/03/25 11:36:36;;;;;;;6.30;3.88;;;19.70;39.00;;;;;;5054347;28;20056;-90
2021/03/25 11:39:20;;;;;;;5.10;3.15;;;19.70;37.80;;;;;;5054699;28;20030;-90
2021/03/25 11:42:28;;;;;;;8.02;3.50;;;19.70;37.90;;;;;;5072837;28;20039;-90
2021/03/25 11:44:55;;;;;;;8.73;4.22;;;19.60;37.50;;;;;;5009366;28;20075;-88
2021/03/25 11:47:41;;;;;;;6.78;2.92;;;19.50;37.20;;;;;;5053364;28;20021;-89
2021/03/25 11:50:16;;;;;;;6.40;2.97;;;19.50;37.60;;;;;;5048379;28;20025;-88
2021/03/25 11:52:48;;;;;;;8.73;3.25;;;19.50;39.20;;;;;;5035223;28;20021;-89
2021/03/25 11:55:38;;;;;;;7.28;3.92;;;19.80;39.80;;;;;;5057387;28;20021;-89
2021/03/25 11:58:17;;;;;;;11.80;4.43;;;20.00;39.30;;;;;;5073161;28;20036;-90
2021/03/25 12:00:52;;;;;;;7.07;4.03;;;20.10;38.30;;;;;;5043837;28;20017;-90
2021/03/25 12:03:26;;;;;;;8.07;4.18;;;20.10;37.00;;;;;;5071771;28;20055;-91
2021/03/25 12:05:51;;;;;;;12.23;4.03;;;20.00;37.70;;;;;;5069965;28;20085;-89
2021/03/25 12:08:17;;;;;;;9.02;4.35;;;20.00;38.00;;;;;;5052648;28;20510;-89
2021/03/25 12:10:43;;;;;;;8.90;3.78;;;20.10;37.30;;;;;;5043619;28;20025;-89
2021/03/25 12:13:10;;;;;;;9.82;4.95;;;20.00;37.40;;;;;;5045754;28;20033;-89
2021/03/25 12:15:36;;;;;;;8.98;4.10;;;19.90;37.30;;;;;;5057158;28;20120;-89
2021/03/25 12:18:06;;;;;;;13.23;5.10;;;19.90;38.40;;;;;;5071900;28;20063;-89
2021/03/25 12:20:35;;;;;;;11.77;5.18;;;20.00;39.20;;;;;;5035249;28;20104;-90
2021/03/25 12:23:23;;;;;;;12.13;4.75;;;20.20;39.20;;;;;;5035715;28;20028;-89
2021/03/25 12:25:51;;;;;;;10.00;4.88;;;20.40;39.40;;;;;;5034564;28;20017;-89
2021/03/25 12:28:35;;;;;;;10.35;4.82;;;20.50;39.50;;;;;;5047285;28;20110;-90
2021/03/25 12:31:02;;;;;;;8.27;4.43;;;20.70;39.20;;;;;;5054749;28;20028;-89
2021/03/25 12:33:31;;;;;;;8.02;4.38;;;20.80;39.80;;;;;;5052156;28;20049;-88
2021/03/25 12:35:59;;;;;;;9.82;4.75;;;20.80;38.20;;;;;;5073345;28;20024;-89
2021/03/25 12:38:25;;;;;;;11.43;5.45;;;20.90;38.20;;;;;;5052256;28;20055;-90
2021/03/25 12:40:51;;;;;;;10.55;5.05;;;21.00;37.60;;;;;;5045100;28;20021;-90
2021/03/25 12:43:21;;;;;;;12.40;5.25;;;21.00;38.00;;;;;;5035988;28;20537;-90
2021/03/25 12:45:50;;;;;;;10.43;4.63;;;21.10;37.90;;;;;;5044232;28;20024;-88
2021/03/25 12:48:20;;;;;;;8.43;4.30;;;21.20;38.00;;;;;;5054385;28;20025;-89
2021/03/25 12:50:46;;;;;;;9.82;4.53;;;21.30;37.20;;;;;;5044770;28;20032;-90
2021/03/25 12:53:12;;;;;;;9.63;4.18;;;21.20;36.50;;;;;;5041356;28;20510;-89
2021/03/25 12:55:39;;;;;;;11.55;4.18;;;21.10;36.60;;;;;;5058001;28;20043;-91
2021/03/25 12:58:05;;;;;;;8.68;4.10;;;21.20;36.80;;;;;;5058386;28;20025;-90
2021/03/25 13:00:35;;;;;;;8.52;4.35;;;21.30;37.30;;;;;;5057553;28;20029;-89
2021/03/25 13:03:02;;;;;;;7.75;4.40;;;21.50;37.20;;;;;;5058414;28;20435;-90
2021/03/25 13:05:27;;;;;;;7.30;3.95;;;21.70;36.40;;;;;;5056629;28;20051;-90
2021/03/25 13:07:53;;;;;;;8.05;3.67;;;21.60;36.30;;;;;;5058598;28;20033;-90
2021/03/25 13:10:21;;;;;;;9.18;4.80;;;21.70;36.00;;;;;;5058019;28;20500;-90
2021/03/25 13:12:47;;;;;;;6.95;3.92;;;21.70;36.50;;;;;;5058517;28;20027;-90
2021/03/25 13:15:14;;;;;;;6.90;4.05;;;21.80;35.60;;;;;;5051327;28;20032;-87
2021/03/25 13:17:40;;;;;;;5.65;3.55;;;21.80;35.90;;;;;;5058523;28;20033;-87
2021/03/25 13:20:08;;;;;;;6.60;3.40;;;21.70;34.40;;;;;;5047345;28;20025;-87
2021/03/25 13:22:34;;;;;;;6.85;3.75;;;21.60;35.40;;;;;;5047081;28;20367;-88
2021/03/25 13:25:00;;;;;;;6.65;3.58;;;21.60;35.20;;;;;;5057517;28;20059;-89